Terminal Aerodrome Forecast
Issued by NWS

Home | Current Version | Previous Version | Text Only | Print | Product List | Glossary On
Versions: 1 2 3 4 5 6 7 8 9 10 11 12 13 14 15 16 17 18 19 20 21
000
FTUS46 KEKA 251126
TAFCEC
TAF
KCEC 251126Z 2512/2612 VRB03KT 1/2SM FG OVC002
      TEMPO 2512/2516 1/4SM FG VV002
     FM251700 20007KT 3SM BR BKN002
     FM252000 18008KT 1 1/2SM BR BKN002
      TEMPO 2520/2524 P6SM NSW SCT003
     FM260000 16006KT 1 1/2SM BR BKN002
     FM260600 VRB03KT 1/2SM FG VV002=

USA.gov is the U.S. government's official web portal to all federal, state and local government web resources and services.